createdAt,value
2018-03-22T00:00:23.318Z,9.48
2018-03-22T00:02:51.248Z,9.48
2018-03-22T00:05:19.799Z,8.85
2018-03-22T00:07:51.342Z,10.10
2018-03-22T00:10:19.862Z,9.70
2018-03-22T00:12:47.456Z,9.95
2018-03-22T00:15:15.043Z,10.30
2018-03-22T00:17:42.649Z,9.63
2018-03-22T00:20:10.230Z,10.43
2018-03-22T00:22:38.468Z,9.95
2018-03-22T00:25:06.064Z,9.35
2018-03-22T00:27:33.665Z,8.85
2018-03-22T00:30:01.242Z,8.35
2018-03-22T00:32:28.843Z,8.20
2018-03-22T00:34:56.414Z,8.20
2018-03-22T00:37:24.003Z,8.55
2018-03-22T00:39:51.578Z,8.65
2018-03-22T00:42:19.161Z,8.40
2018-03-22T00:44:46.726Z,9.10
2018-03-22T00:47:14.313Z,8.30
2018-03-22T00:49:41.911Z,8.15
2018-03-22T00:52:11.436Z,8.27
2018-03-22T00:54:39.007Z,8.38
2018-03-22T00:57:08.530Z,8.05
2018-03-22T00:59:36.101Z,7.37
2018-03-22T01:02:03.698Z,7.72
2018-03-22T01:04:31.300Z,7.03
2018-03-22T01:06:59.190Z,7.93
2018-03-22T01:09:26.761Z,6.55
2018-03-22T01:11:54.327Z,6.97
2018-03-22T01:14:22.269Z,6.90
2018-03-22T01:16:50.521Z,6.87
2018-03-22T01:19:18.889Z,6.80
2018-03-22T01:21:46.494Z,6.50
2018-03-22T01:24:14.074Z,7.07
2018-03-22T01:26:41.642Z,6.75
2018-03-22T01:29:09.236Z,6.60
2018-03-22T01:31:36.820Z,6.45
2018-03-22T01:34:04.391Z,6.93
2018-03-22T01:36:31.982Z,7.30
2018-03-22T01:38:59.553Z,5.80
2018-03-22T01:41:27.123Z,6.35
2018-03-22T01:43:54.709Z,5.90
2018-03-22T01:46:22.292Z,6.15
2018-03-22T01:48:49.857Z,5.97
2018-03-22T01:51:17.445Z,6.12
2018-03-22T01:53:45.022Z,6.05
2018-03-22T01:56:12.592Z,5.18
2018-03-22T01:58:40.177Z,5.93
2018-03-22T02:01:07.794Z,5.62
2018-03-22T02:03:35.404Z,5.90
2018-03-22T02:06:02.970Z,6.20
2018-03-22T02:08:30.548Z,5.50
2018-03-22T02:10:58.150Z,5.78
2018-03-22T02:13:25.717Z,5.55
2018-03-22T02:15:53.310Z,5.62
2018-03-22T02:18:20.880Z,5.55
2018-03-22T02:20:48.470Z,4.75
2018-03-22T02:23:16.066Z,6.10
2018-03-22T02:25:43.645Z,5.47
2018-03-22T02:28:11.254Z,6.00
2018-03-22T02:30:38.834Z,5.25
2018-03-22T02:33:06.415Z,6.05
2018-03-22T02:35:34.009Z,6.20
2018-03-22T02:38:01.587Z,7.20
2018-03-22T02:40:29.208Z,5.90
2018-03-22T02:42:56.824Z,6.75
2018-03-22T02:45:24.402Z,6.75
2018-03-22T02:47:54.010Z,6.40
2018-03-22T02:50:21.593Z,6.60
2018-03-22T02:52:49.194Z,7.05
2018-03-22T02:55:17.762Z,5.95
2018-03-22T02:57:45.341Z,6.85
2018-03-22T03:00:12.937Z,6.00
2018-03-22T03:02:40.538Z,6.22
2018-03-22T03:05:08.131Z,5.85
2018-03-22T03:07:35.701Z,6.37
2018-03-22T03:10:03.274Z,5.72
2018-03-22T03:12:30.866Z,6.10
2018-03-22T03:14:58.436Z,6.10
2018-03-22T03:17:25.957Z,5.80
2018-03-22T03:19:53.462Z,7.30
2018-03-22T03:22:20.962Z,6.22
2018-03-22T03:24:48.454Z,6.05
2018-03-22T03:27:15.969Z,5.60
2018-03-22T03:29:43.449Z,5.60
2018-03-22T03:32:10.941Z,5.80
2018-03-22T03:34:38.418Z,7.10
2018-03-22T03:37:05.925Z,6.18
2018-03-22T03:39:33.404Z,6.05
2018-03-22T03:42:00.909Z,6.25
2018-03-22T03:44:28.397Z,5.85
2018-03-22T03:46:55.896Z,5.22
2018-03-22T03:49:23.375Z,5.80
2018-03-22T03:51:50.885Z,6.15
2018-03-22T03:54:18.370Z,5.70
2018-03-22T03:56:45.873Z,6.25
2018-03-22T03:59:13.359Z,5.75
2018-03-22T04:01:42.817Z,6.32
2018-03-22T04:04:10.105Z,6.30
2018-03-22T04:06:37.592Z,5.87
2018-03-22T04:09:04.845Z,5.37
2018-03-22T04:11:32.346Z,5.68
2018-03-22T04:13:59.899Z,5.30
2018-03-22T04:16:27.386Z,5.95
2018-03-22T04:18:54.901Z,6.18
2018-03-22T04:21:22.380Z,6.32
2018-03-22T04:23:49.877Z,5.18
2018-03-22T04:26:17.354Z,5.50
2018-03-22T04:28:45.905Z,5.37
2018-03-22T04:31:13.392Z,5.72
2018-03-22T04:33:40.894Z,5.30
2018-03-22T04:36:08.374Z,5.72
2018-03-22T04:38:35.885Z,6.05
2018-03-22T04:41:03.356Z,6.28
2018-03-22T04:43:30.858Z,6.97
2018-03-22T04:45:58.358Z,6.05
2018-03-22T04:48:25.853Z,5.20
2018-03-22T04:50:53.153Z,5.87
2018-03-22T04:53:20.653Z,6.55
2018-03-22T04:55:48.126Z,6.05
2018-03-22T04:58:15.625Z,6.47
2018-03-22T05:00:43.130Z,7.28
2018-03-22T05:03:10.629Z,5.80
2018-03-22T05:05:38.109Z,6.43
2018-03-22T05:08:05.613Z,5.85
2018-03-22T05:10:33.085Z,6.18
2018-03-22T05:13:00.590Z,7.82
2018-03-22T05:15:28.098Z,6.70
2018-03-22T05:17:55.602Z,7.15
2018-03-22T05:20:23.100Z,5.87
2018-03-22T05:22:50.617Z,6.53
2018-03-22T05:25:18.093Z,5.72
2018-03-22T05:27:45.575Z,5.50
2018-03-22T05:30:13.091Z,6.62
2018-03-22T05:32:40.570Z,6.40
2018-03-22T05:35:08.081Z,5.62
2018-03-22T05:37:35.317Z,6.12
2018-03-22T05:40:02.793Z,6.35
2018-03-22T05:42:30.302Z,6.62
2018-03-22T05:44:57.620Z,7.28
2018-03-22T05:47:25.098Z,5.62
2018-03-22T05:49:52.595Z,5.60
2018-03-22T05:52:20.069Z,5.95
2018-03-22T05:54:47.573Z,6.35
2018-03-22T05:57:15.063Z,5.68
2018-03-22T05:59:42.540Z,6.03
2018-03-22T06:02:10.045Z,5.00
2018-03-22T06:04:37.523Z,5.80
2018-03-22T06:07:05.024Z,5.97
2018-03-22T06:09:32.506Z,6.25
2018-03-22T06:11:59.997Z,5.10
2018-03-22T06:14:27.511Z,5.37
2018-03-22T06:16:54.997Z,6.12
2018-03-22T06:19:22.496Z,5.40
2018-03-22T06:21:49.982Z,6.30
2018-03-22T06:24:17.481Z,5.47
2018-03-22T06:26:44.975Z,5.55
2018-03-22T06:29:12.459Z,5.55
2018-03-22T06:31:39.937Z,5.80
2018-03-22T06:34:07.438Z,5.78
2018-03-22T06:36:35.860Z,4.45
2018-03-22T06:39:02.931Z,5.65
2018-03-22T06:41:30.425Z,5.25
2018-03-22T06:43:57.904Z,5.00
2018-03-22T06:46:25.390Z,5.05
2018-03-22T06:48:52.889Z,5.37
2018-03-22T06:51:20.377Z,5.65
2018-03-22T06:53:47.667Z,5.22
2018-03-22T06:56:15.156Z,5.43
2018-03-22T06:58:42.630Z,5.35
2018-03-22T07:01:10.120Z,5.78
2018-03-22T07:03:37.591Z,5.80
2018-03-22T07:06:06.071Z,5.68
2018-03-22T07:08:33.564Z,5.70
2018-03-22T07:11:01.042Z,5.95
2018-03-22T07:13:28.553Z,5.37
2018-03-22T07:15:56.030Z,5.47
2018-03-22T07:18:23.504Z,5.07
2018-03-22T07:20:50.997Z,5.85
2018-03-22T07:23:18.470Z,5.07
2018-03-22T07:25:45.950Z,5.40
2018-03-22T07:28:13.441Z,5.15
2018-03-22T07:30:40.937Z,5.95
2018-03-22T07:33:08.229Z,5.55
2018-03-22T07:35:35.733Z,4.80
2018-03-22T07:38:03.205Z,4.95
2018-03-22T07:40:30.700Z,4.65
2018-03-22T07:43:03.721Z,5.00
2018-03-22T07:45:31.218Z,5.10
2018-03-22T07:47:58.697Z,5.20
2018-03-22T07:50:26.196Z,5.25
2018-03-22T07:52:53.673Z,4.93
2018-03-22T07:55:21.055Z,5.35
2018-03-22T07:57:48.484Z,5.28
2018-03-22T08:00:15.984Z,4.95
2018-03-22T08:02:43.453Z,4.87
2018-03-22T08:05:10.945Z,5.20
2018-03-22T08:07:38.429Z,5.15
2018-03-22T08:10:05.941Z,5.07
2018-03-22T08:12:33.413Z,5.40
2018-03-22T08:15:00.896Z,5.00
2018-03-22T08:17:28.400Z,4.65
2018-03-22T08:19:55.879Z,5.30
2018-03-22T08:22:23.377Z,4.68
2018-03-22T08:24:50.852Z,4.53
2018-03-22T08:27:18.351Z,4.95
2018-03-22T08:29:45.833Z,5.20
2018-03-22T08:32:13.309Z,4.30
2018-03-22T08:34:40.821Z,4.05
2018-03-22T08:37:08.298Z,3.65
2018-03-22T08:39:35.789Z,3.90
2018-03-22T08:42:03.271Z,4.30
2018-03-22T08:44:30.770Z,3.00
2018-03-22T08:46:58.246Z,3.70
2018-03-22T08:49:25.717Z,3.60
2018-03-22T08:51:54.213Z,3.37
2018-03-22T08:54:22.634Z,3.65
2018-03-22T08:56:50.124Z,3.97
2018-03-22T08:59:17.617Z,4.18
2018-03-22T09:01:45.105Z,3.55
2018-03-22T09:04:12.590Z,3.95
2018-03-22T09:06:40.068Z,4.00
2018-03-22T09:09:07.565Z,3.78
2018-03-22T09:11:35.041Z,4.00
2018-03-22T09:14:02.536Z,3.30
2018-03-22T09:16:30.004Z,2.97
2018-03-22T09:18:57.487Z,3.33
2018-03-22T09:21:24.962Z,3.08
2018-03-22T09:23:52.438Z,3.45
2018-03-22T09:26:19.938Z,3.60
2018-03-22T09:28:47.404Z,2.80
2018-03-22T09:31:14.914Z,3.37
2018-03-22T09:33:42.406Z,3.75
2018-03-22T09:36:09.916Z,3.05
2018-03-22T09:38:37.454Z,3.60
2018-03-22T09:41:05.101Z,3.72
2018-03-22T09:43:32.584Z,3.40
2018-03-22T09:46:00.070Z,4.00
2018-03-22T09:48:27.571Z,3.40
2018-03-22T09:50:55.051Z,4.37
2018-03-22T09:53:22.545Z,3.97
2018-03-22T09:55:50.014Z,3.08
2018-03-22T09:58:17.517Z,3.00
2018-03-22T10:00:45.091Z,2.70
2018-03-22T10:03:12.561Z,3.08
2018-03-22T10:05:40.064Z,2.97
2018-03-22T10:08:07.541Z,3.83
2018-03-22T10:10:35.040Z,2.97
2018-03-22T10:13:02.514Z,3.05
2018-03-22T10:15:30.024Z,2.95
2018-03-22T10:17:57.523Z,2.67
2018-03-22T10:20:24.999Z,3.00
2018-03-22T10:22:52.496Z,3.50
2018-03-22T10:25:19.968Z,3.85
2018-03-22T10:27:47.461Z,3.35
2018-03-22T10:30:14.933Z,3.62
2018-03-22T10:32:42.432Z,3.20
2018-03-22T10:35:09.723Z,3.47
2018-03-22T10:37:37.195Z,4.07
2018-03-22T10:40:04.473Z,3.83
2018-03-22T10:42:31.884Z,3.20
2018-03-22T10:44:59.391Z,3.30
2018-03-22T10:47:26.866Z,3.85
2018-03-22T10:49:54.361Z,3.60
2018-03-22T10:52:21.846Z,3.97
2018-03-22T10:54:49.325Z,3.62
2018-03-22T10:57:18.825Z,3.12
2018-03-22T10:59:46.308Z,3.60
2018-03-22T11:02:19.415Z,4.10
2018-03-22T11:04:46.892Z,3.72
2018-03-22T11:07:14.394Z,4.22
2018-03-22T11:09:41.876Z,3.70
2018-03-22T11:12:09.349Z,4.80
2018-03-22T11:14:36.846Z,4.20
2018-03-22T11:17:04.318Z,4.28
2018-03-22T11:19:31.834Z,3.75
2018-03-22T11:21:59.338Z,4.55
2018-03-22T11:24:26.832Z,4.18
2018-03-22T11:26:54.306Z,4.87
2018-03-22T11:29:21.786Z,4.47
2018-03-22T11:31:49.289Z,4.60
2018-03-22T11:34:16.767Z,5.40
2018-03-22T11:36:44.273Z,5.22
2018-03-22T11:39:11.757Z,4.30
2018-03-22T11:41:39.229Z,3.87
2018-03-22T11:44:06.721Z,3.90
2018-03-22T11:46:34.197Z,4.35
2018-03-22T11:49:01.706Z,5.00
2018-03-22T11:51:29.180Z,5.60
2018-03-22T11:53:56.658Z,4.75
2018-03-22T11:56:26.088Z,4.25
2018-03-22T11:58:53.574Z,4.43
2018-03-22T12:01:21.067Z,4.20
2018-03-22T12:03:48.536Z,4.30
2018-03-22T12:06:16.037Z,4.60
2018-03-22T12:08:43.518Z,3.55
2018-03-22T12:11:10.989Z,3.50
2018-03-22T12:13:38.485Z,3.78
2018-03-22T12:16:05.962Z,4.05
2018-03-22T12:18:33.470Z,3.97
2018-03-22T12:21:00.945Z,3.65
2018-03-22T12:23:28.462Z,3.70
2018-03-22T12:25:55.941Z,4.18
2018-03-22T12:28:23.426Z,3.50
2018-03-22T12:30:52.878Z,4.00
2018-03-22T12:33:20.359Z,3.95
2018-03-22T12:35:47.850Z,3.72
2018-03-22T12:38:15.337Z,3.70
2018-03-22T12:40:42.838Z,3.37
2018-03-22T12:43:10.330Z,3.97
2018-03-22T12:45:37.997Z,3.53
2018-03-22T12:48:07.505Z,3.95
2018-03-22T12:50:35.002Z,3.60
2018-03-22T12:53:02.513Z,3.90
2018-03-22T12:55:29.986Z,4.10
2018-03-22T12:57:57.497Z,4.20
2018-03-22T13:00:24.970Z,4.60
2018-03-22T13:02:52.446Z,3.95
2018-03-22T13:05:19.944Z,4.00
2018-03-22T13:07:47.425Z,4.90
2018-03-22T13:10:14.926Z,4.95
2018-03-22T13:12:42.408Z,4.37
2018-03-22T13:15:09.910Z,3.78
2018-03-22T13:17:37.389Z,4.15
2018-03-22T13:20:04.884Z,3.75
2018-03-22T13:22:32.387Z,3.78
2018-03-22T13:24:59.861Z,3.60
2018-03-22T13:27:27.363Z,3.50
2018-03-22T13:29:54.857Z,4.18
2018-03-22T13:32:22.547Z,4.45
2018-03-22T13:34:50.031Z,3.78
2018-03-22T13:37:17.508Z,3.78
2018-03-22T13:39:45.019Z,3.55
2018-03-22T13:42:12.497Z,4.00
2018-03-22T13:44:39.989Z,2.90
2018-03-22T13:47:07.272Z,4.30
2018-03-22T13:49:34.769Z,2.80
2018-03-22T13:52:02.243Z,4.10
2018-03-22T13:54:29.729Z,3.95
2018-03-22T13:56:57.050Z,3.35
2018-03-22T13:59:24.533Z,3.45
2018-03-22T14:01:53.062Z,3.67
2018-03-22T14:04:22.050Z,4.10
2018-03-22T14:06:49.545Z,3.10
2018-03-22T14:09:17.961Z,4.00
2018-03-22T14:11:45.443Z,3.12
2018-03-22T14:14:12.937Z,4.00
2018-03-22T14:16:40.417Z,3.25
2018-03-22T14:19:07.925Z,3.50
2018-03-22T14:21:35.418Z,4.25
2018-03-22T14:24:02.916Z,3.97
2018-03-22T14:26:30.398Z,4.30
2018-03-22T14:28:57.873Z,3.30
2018-03-22T14:31:25.371Z,3.80
2018-03-22T14:33:52.858Z,3.60
2018-03-22T14:36:20.366Z,3.20
2018-03-22T14:38:47.888Z,2.85
2018-03-22T14:41:15.540Z,3.20
2018-03-22T14:43:43.022Z,3.10
2018-03-22T14:46:11.451Z,3.80
2018-03-22T14:48:38.959Z,3.87
2018-03-22T14:51:06.529Z,3.75
2018-03-22T14:53:34.034Z,2.95
2018-03-22T14:56:01.534Z,3.30
2018-03-22T14:58:29.031Z,3.60
2018-03-22T15:00:57.340Z,3.78
2018-03-22T15:03:24.825Z,6.87
2018-03-22T15:05:52.654Z,4.68
2018-03-22T15:08:20.126Z,3.70
2018-03-22T15:10:47.625Z,3.90
2018-03-22T15:13:15.101Z,4.22
2018-03-22T15:15:42.606Z,5.95
2018-03-22T15:18:10.093Z,3.65
2018-03-22T15:20:37.566Z,4.00
2018-03-22T15:23:05.066Z,4.05
2018-03-22T15:25:32.579Z,3.67
2018-03-22T15:28:00.073Z,3.65
2018-03-22T15:30:27.553Z,4.15
2018-03-22T15:32:55.861Z,4.10
2018-03-22T15:35:23.338Z,4.28
2018-03-22T15:37:50.818Z,4.10
2018-03-22T15:40:18.310Z,5.10
2018-03-22T15:42:45.792Z,4.62
2018-03-22T15:45:13.358Z,3.55
2018-03-22T15:47:40.857Z,4.25
2018-03-22T15:50:08.504Z,3.80
2018-03-22T15:52:35.993Z,3.90
2018-03-22T15:55:03.465Z,4.15
2018-03-22T15:57:31.973Z,3.70
2018-03-22T15:59:59.445Z,3.65
2018-03-22T16:02:26.932Z,4.03
2018-03-22T16:04:54.430Z,4.25
2018-03-22T16:07:21.915Z,7.00
2018-03-22T16:09:49.422Z,6.65
2018-03-22T16:12:16.900Z,4.95
2018-03-22T16:14:44.403Z,5.28
2018-03-22T16:17:11.890Z,8.60
2018-03-22T16:19:39.366Z,4.00
2018-03-22T16:22:06.865Z,4.40
2018-03-22T16:24:34.341Z,3.95
2018-03-22T16:27:01.839Z,3.55
2018-03-22T16:29:29.313Z,4.05
2018-03-22T16:31:56.813Z,3.60
2018-03-22T16:34:24.298Z,3.85
2018-03-22T16:36:51.789Z,3.85
2018-03-22T16:39:19.282Z,5.10
2018-03-22T16:41:46.769Z,5.25
2018-03-22T16:44:14.275Z,4.90
2018-03-22T16:46:41.745Z,5.43
2018-03-22T16:49:10.266Z,5.12
2018-03-22T16:51:37.733Z,5.75
2018-03-22T16:54:06.185Z,5.25
2018-03-22T16:56:33.678Z,4.78
2018-03-22T16:59:01.162Z,5.30
2018-03-22T17:01:28.654Z,5.45
2018-03-22T17:03:56.137Z,6.53
2018-03-22T17:06:23.641Z,5.10
2018-03-22T17:08:51.130Z,4.95
2018-03-22T17:11:18.651Z,7.40
2018-03-22T17:13:46.142Z,5.05
2018-03-22T17:16:13.660Z,8.82
2018-03-22T17:18:41.145Z,5.30
2018-03-22T17:21:08.677Z,5.25
2018-03-22T17:23:36.181Z,5.47
2018-03-22T17:26:03.694Z,5.40
2018-03-22T17:28:32.113Z,6.18
2018-03-22T17:31:01.560Z,21.25
2018-03-22T17:33:29.066Z,11.38
2018-03-22T17:35:56.594Z,7.70
2018-03-22T17:38:24.089Z,5.37
2018-03-22T17:40:51.600Z,31.87
2018-03-22T17:43:19.108Z,11.57
2018-03-22T17:45:46.622Z,7.78
2018-03-22T17:48:14.101Z,6.65
2018-03-22T17:50:41.599Z,5.22
2018-03-22T17:53:09.086Z,5.78
2018-03-22T17:55:36.617Z,6.00
2018-03-22T17:58:03.870Z,6.20
2018-03-22T18:00:31.389Z,7.20
2018-03-22T18:02:58.698Z,8.25
2018-03-22T18:05:27.123Z,7.95
2018-03-22T18:07:55.622Z,8.90
2018-03-22T18:10:23.108Z,8.68
2018-03-22T18:12:50.621Z,7.95
2018-03-22T18:15:18.093Z,6.18
2018-03-22T18:17:45.645Z,7.60
2018-03-22T18:20:13.158Z,7.80
2018-03-22T18:22:40.637Z,7.70
2018-03-22T18:25:08.142Z,7.85
2018-03-22T18:27:35.629Z,10.40
2018-03-22T18:30:03.154Z,8.25
2018-03-22T18:32:31.569Z,8.65
2018-03-22T18:34:59.036Z,8.23
2018-03-22T18:37:26.545Z,7.97
2018-03-22T18:39:54.046Z,8.18
2018-03-22T18:42:21.562Z,8.43
2018-03-22T18:44:49.053Z,8.20
2018-03-22T18:47:16.571Z,8.60
2018-03-22T18:49:44.062Z,7.45
2018-03-22T18:52:11.577Z,8.48
2018-03-22T18:54:39.074Z,8.40
2018-03-22T18:57:06.582Z,8.05
2018-03-22T18:59:34.053Z,7.53
2018-03-22T19:02:01.761Z,7.03
2018-03-22T19:04:29.240Z,6.05
2018-03-22T19:06:56.750Z,6.32
2018-03-22T19:09:24.245Z,16.60
2018-03-22T19:11:51.749Z,7.25
2018-03-22T19:14:19.237Z,5.57
2018-03-22T19:16:46.719Z,5.50
2018-03-22T19:19:14.241Z,5.47
2018-03-22T19:21:41.807Z,4.90
2018-03-22T19:24:09.434Z,4.30
2018-03-22T19:26:36.909Z,4.75
2018-03-22T19:29:04.406Z,5.68
2018-03-22T19:31:31.885Z,5.05
2018-03-22T19:33:59.389Z,4.93
2018-03-22T19:36:26.881Z,5.32
2018-03-22T19:38:54.379Z,5.53
2018-03-22T19:41:21.860Z,5.32
2018-03-22T19:43:49.181Z,5.45
2018-03-22T19:46:16.662Z,5.68
2018-03-22T19:48:44.173Z,5.80
2018-03-22T19:51:11.660Z,6.18
2018-03-22T19:53:39.753Z,6.15
2018-03-22T19:56:07.262Z,7.18
2018-03-22T19:58:34.758Z,7.18
2018-03-22T20:01:02.233Z,6.10
2018-03-22T20:03:29.738Z,5.62
2018-03-22T20:05:57.232Z,6.62
2018-03-22T20:08:24.737Z,7.30
2018-03-22T20:10:52.221Z,6.85
2018-03-22T20:13:19.737Z,8.30
2018-03-22T20:15:47.238Z,7.60
2018-03-22T20:18:14.733Z,6.03
2018-03-22T20:20:42.233Z,7.12
2018-03-22T20:23:09.739Z,6.62
2018-03-22T20:25:37.232Z,6.95
2018-03-22T20:28:04.733Z,6.87
2018-03-22T20:30:32.212Z,6.53
2018-03-22T20:32:59.692Z,7.18
2018-03-22T20:35:27.190Z,5.72
2018-03-22T20:37:54.692Z,7.15
2018-03-22T20:40:22.194Z,6.15
2018-03-22T20:42:49.669Z,6.43
2018-03-22T20:45:17.152Z,7.15
2018-03-22T20:47:44.654Z,6.80
2018-03-22T20:50:12.134Z,6.85
2018-03-22T20:52:39.645Z,6.75
2018-03-22T20:55:07.125Z,6.82
2018-03-22T20:57:34.627Z,6.15
2018-03-22T21:00:02.103Z,5.62
2018-03-22T21:02:29.394Z,6.35
2018-03-22T21:04:56.901Z,6.50
2018-03-22T21:07:24.381Z,6.90
2018-03-22T21:09:51.883Z,6.40
2018-03-22T21:12:19.358Z,7.30
2018-03-22T21:14:46.882Z,6.10
2018-03-22T21:17:14.368Z,5.95
2018-03-22T21:19:41.854Z,5.93
2018-03-22T21:22:09.349Z,6.20
2018-03-22T21:24:36.824Z,5.90
2018-03-22T21:27:04.338Z,5.75
2018-03-22T21:29:31.830Z,10.95
2018-03-22T21:31:59.338Z,6.95
2018-03-22T21:34:26.825Z,5.62
2018-03-22T21:36:54.308Z,7.10
2018-03-22T21:39:21.817Z,6.62
2018-03-22T21:41:56.014Z,7.28
2018-03-22T21:44:23.540Z,6.43
2018-03-22T21:46:51.025Z,7.32
2018-03-22T21:49:18.537Z,43.00
2018-03-22T21:52:02.390Z,11.12
2018-03-22T21:54:29.916Z,28.45
2018-03-22T21:56:57.219Z,35.45
2018-03-22T21:59:24.711Z,12.20
2018-03-22T22:01:52.225Z,23.30
2018-03-22T22:04:19.705Z,14.55
2018-03-22T22:06:47.222Z,8.80
2018-03-22T22:09:14.705Z,11.30
2018-03-22T22:11:42.198Z,11.10
2018-03-22T22:14:09.707Z,8.35
2018-03-22T22:16:37.181Z,8.73
2018-03-22T22:19:04.683Z,7.87
2018-03-22T22:21:32.168Z,9.15
2018-03-22T22:23:59.682Z,9.10
2018-03-22T22:26:27.167Z,9.27
2018-03-22T22:28:54.645Z,10.30
2018-03-22T22:31:23.180Z,11.12
2018-03-22T22:33:50.865Z,11.23
2018-03-22T22:36:19.179Z,11.35
2018-03-22T22:38:46.486Z,10.80
2018-03-22T22:41:13.996Z,12.30
2018-03-22T22:43:41.487Z,11.32
2018-03-22T22:46:08.977Z,11.12
2018-03-22T22:48:36.482Z,10.50
2018-03-22T22:51:03.965Z,11.10
2018-03-22T22:53:31.473Z,11.30
2018-03-22T22:55:58.974Z,11.73
2018-03-22T22:58:27.466Z,11.82
2018-03-22T23:00:54.953Z,11.55
2018-03-22T23:03:22.785Z,11.95
2018-03-22T23:05:50.309Z,11.27
2018-03-22T23:08:17.803Z,11.32
2018-03-22T23:10:45.314Z,11.50
2018-03-22T23:13:12.809Z,11.95
2018-03-22T23:15:40.319Z,10.40
2018-03-22T23:18:07.807Z,12.02
2018-03-22T23:20:35.293Z,12.02
2018-03-22T23:23:03.801Z,13.35
2018-03-22T23:25:31.308Z,10.88
2018-03-22T23:27:58.813Z,11.55
2018-03-22T23:30:27.280Z,11.10
2018-03-22T23:32:55.080Z,11.63
2018-03-22T23:35:22.409Z,13.43
2018-03-22T23:37:49.714Z,12.45
2018-03-22T23:40:17.222Z,11.70
2018-03-22T23:42:44.710Z,13.00
2018-03-22T23:45:12.201Z,12.10
2018-03-22T23:47:39.709Z,12.13
2018-03-22T23:50:07.194Z,13.13
2018-03-22T23:52:35.937Z,12.02
2018-03-22T23:55:03.434Z,12.85
2018-03-22T23:57:31.873Z,12.98
